Time;durP1;ratioP1;P1;durP2;ratioP2;P2;SDS_P1;SDS_P2;PMS_P1;PMS_P2;Temp;Humidity;BMP_temperature;BMP_pressure;BME280_temperature;BME280_humidity;BME280_pressure;Samples;Min_cycle;Max_cycle;Signal;HPM_P1;HPM_P2
2022/06/11 00:00:40;;;;;;;1.60;0.80;;;16.10;99.90;;;;;;5093315;28;20206;-67
2022/06/11 00:03:08;;;;;;;2.43;0.90;;;16.20;99.90;;;;;;5093963;28;20184;-67
2022/06/11 00:05:37;;;;;;;0.50;0.50;;;16.40;99.90;;;;;;5093853;28;20653;-67
2022/06/11 00:08:06;;;;;;;1.77;0.70;;;16.30;99.90;;;;;;5093276;28;20189;-68
2022/06/11 00:10:34;;;;;;;1.33;0.80;;;16.50;99.90;;;;;;5074404;28;20298;-68
2022/06/11 00:13:02;;;;;;;0.70;0.70;;;16.70;99.90;;;;;;5093179;28;20186;-67
2022/06/11 00:15:31;;;;;;;0.90;0.80;;;16.40;99.90;;;;;;5093241;28;20183;-67
2022/06/11 00:17:59;;;;;;;0.77;0.43;;;16.30;99.90;;;;;;5088570;28;20629;-68
2022/06/11 00:20:28;;;;;;;0.53;0.50;;;16.20;99.90;;;;;;5092755;28;20181;-68
2022/06/11 00:22:56;;;;;;;0.53;0.50;;;16.10;99.90;;;;;;5093183;28;20219;-68
2022/06/11 00:25:24;;;;;;;0.40;0.40;;;16.50;99.90;;;;;;5093178;28;20214;-66
2022/06/11 00:27:52;;;;;;;2.00;0.50;;;16.60;99.90;;;;;;5093480;28;20652;-65
2022/06/11 00:30:20;;;;;;;0.40;0.37;;;16.70;99.90;;;;;;5093436;28;20242;-66
2022/06/11 00:32:49;;;;;;;0.50;0.50;;;16.50;99.90;;;;;;5093378;28;20175;-66
2022/06/11 00:35:16;;;;;;;1.13;0.50;;;16.80;99.90;;;;;;5093311;28;20548;-66
2022/06/11 00:37:45;;;;;;;1.27;0.60;;;16.50;99.90;;;;;;5093423;28;20202;-66
2022/06/11 00:40:16;;;;;;;3.27;0.60;;;16.90;99.90;;;;;;5093424;28;20185;-66
2022/06/11 00:42:45;;;;;;;1.30;0.73;;;17.50;99.90;;;;;;5093705;28;20532;-66
2022/06/11 00:45:29;;;;;;;2.20;0.67;;;17.10;99.90;;;;;;5093092;28;20173;-66
2022/06/11 00:48:14;;;;;;;3.10;0.57;;;17.10;99.90;;;;;;5093540;28;20175;-66
2022/06/11 00:50:55;;;;;;;0.87;0.63;;;17.40;99.90;;;;;;5093067;28;20691;-67
2022/06/11 00:53:29;;;;;;;1.80;0.60;;;17.60;99.90;;;;;;5093597;28;20249;-67
2022/06/11 00:55:56;;;;;;;2.57;0.73;;;17.80;99.90;;;;;;5093334;28;20172;-68
2022/06/11 00:58:34;;;;;;;0.87;0.50;;;17.80;99.90;;;;;;5093135;28;20170;-67
2022/06/11 01:01:02;;;;;;;2.23;0.60;;;18.00;99.90;;;;;;5092299;28;20689;-67
2022/06/11 01:03:38;;;;;;;0.70;0.70;;;18.20;99.90;;;;;;5093123;28;20205;-68
2022/06/11 01:06:56;;;;;;;2.70;0.70;;;18.20;99.90;;;;;;5074808;28;20305;-66
2022/06/11 01:10:12;;;;;;;0.40;0.40;;;18.40;99.90;;;;;;5037719;28;20261;-67
2022/06/11 01:12:43;;;;;;;0.80;0.60;;;18.40;99.90;;;;;;4975223;28;20187;-67
2022/06/11 01:15:25;;;;;;;1.33;0.40;;;18.60;99.90;;;;;;4991831;28;20738;-67
2022/06/11 01:18:10;;;;;;;0.50;0.50;;;18.90;99.90;;;;;;5061570;28;20684;-67
2022/06/11 01:20:59;;;;;;;2.70;0.83;;;19.10;99.90;;;;;;5092827;28;20666;-67
2022/06/11 01:24:13;;;;;;;1.07;0.60;;;19.10;99.90;;;;;;5093062;28;20179;-67
2022/06/11 01:27:09;;;;;;;3.67;0.67;;;19.40;99.90;;;;;;5092713;28;20270;-68
2022/06/11 01:29:52;;;;;;;0.80;0.60;;;18.60;99.30;;;;;;5092770;28;20210;-68
2022/06/11 01:32:34;;;;;;;0.47;0.40;;;18.70;99.20;;;;;;5092938;28;20630;-68
2022/06/11 01:35:21;;;;;;;0.43;0.40;;;18.90;99.30;;;;;;5092625;28;20510;-69
2022/06/11 01:37:57;;;;;;;1.90;0.63;;;19.20;99.90;;;;;;5092989;28;20610;-68
2022/06/11 01:40:48;;;;;;;0.63;0.33;;;19.60;98.20;;;;;;5092742;28;20187;-68
2022/06/11 01:43:22;;;;;;;0.70;0.40;;;19.30;94.30;;;;;;5075366;28;20201;-69
2022/06/11 01:45:51;;;;;;;0.87;0.40;;;18.90;93.30;;;;;;5092634;28;20543;-69
2022/06/11 01:48:24;;;;;;;2.27;0.47;;;18.70;92.60;;;;;;5092672;28;20175;-70
2022/06/11 01:51:03;;;;;;;0.37;0.37;;;18.50;93.80;;;;;;5092534;28;20218;-66
2022/06/11 01:53:40;;;;;;;0.70;0.33;;;19.10;92.80;;;;;;5092757;28;20623;-69
2022/06/11 01:56:26;;;;;;;1.73;0.40;;;19.20;91.20;;;;;;5092392;28;20193;-67
2022/06/11 01:59:09;;;;;;;0.40;0.40;;;19.10;88.70;;;;;;5092764;28;20167;-67
2022/06/11 02:01:55;;;;;;;0.90;0.50;;;18.80;89.20;;;;;;5092295;28;20658;-69
2022/06/11 02:04:40;;;;;;;0.73;0.40;;;18.60;88.00;;;;;;5092558;28;20183;-68
2022/06/11 02:07:51;;;;;;;0.77;0.43;;;18.50;90.60;;;;;;5092422;28;20177;-68
2022/06/11 02:10:29;;;;;;;1.03;0.60;;;18.90;90.70;;;;;;5091412;28;20261;-67
2022/06/11 02:13:01;;;;;;;2.83;0.50;;;19.10;90.10;;;;;;5096489;28;20175;-68
2022/06/11 02:15:54;;;;;;;0.83;0.60;;;19.00;85.50;;;;;;5078016;28;20599;-68
2022/06/11 02:18:24;;;;;;;0.80;0.40;;;19.50;89.40;;;;;;5096641;28;20180;-69
2022/06/11 02:21:10;;;;;;;0.73;0.30;;;19.40;82.70;;;;;;5096309;28;20174;-67
2022/06/11 02:23:42;;;;;;;0.60;0.40;;;19.40;80.60;;;;;;5096219;28;20182;-69
2022/06/11 02:26:22;;;;;;;0.53;0.30;;;19.10;78.60;;;;;;5095708;28;20230;-69
2022/06/11 02:28:51;;;;;;;1.13;0.60;;;19.60;80.80;;;;;;5096238;28;20232;-66
2022/06/11 02:31:24;;;;;;;0.43;0.33;;;20.00;80.60;;;;;;5095893;28;20183;-67
2022/06/11 02:33:53;;;;;;;0.50;0.30;;;19.80;77.90;;;;;;5096120;28;20609;-68
2022/06/11 02:36:30;;;;;;;1.53;0.47;;;19.40;76.30;;;;;;5097139;28;20171;-67
2022/06/11 02:39:04;;;;;;;0.93;0.30;;;19.90;79.30;;;;;;5095657;28;20577;-68
2022/06/11 02:41:34;;;;;;;2.10;0.60;;;20.20;74.40;;;;;;5095848;28;20224;-68
2022/06/11 02:44:02;;;;;;;0.33;0.33;;;20.00;73.80;;;;;;5095893;28;20601;-68
2022/06/11 02:46:42;;;;;;;0.40;0.40;;;20.00;72.20;;;;;;5077039;28;20593;-69
2022/06/11 02:49:21;;;;;;;0.93;0.50;;;20.50;70.60;;;;;;5095399;28;20535;-68
2022/06/11 02:51:52;;;;;;;0.77;0.57;;;20.10;72.00;;;;;;5095584;28;20185;-70
2022/06/11 02:54:21;;;;;;;0.53;0.43;;;20.70;70.80;;;;;;5095424;28;20183;-69
2022/06/11 02:56:52;;;;;;;4.40;0.50;;;20.00;69.30;;;;;;5095206;28;20188;-70
2022/06/11 02:59:21;;;;;;;1.47;0.60;;;20.30;72.60;;;;;;5095285;28;20264;-68
2022/06/11 03:01:49;;;;;;;0.53;0.30;;;20.30;66.90;;;;;;5095470;28;20229;-67
2022/06/11 03:04:16;;;;;;;3.30;0.50;;;20.00;61.00;;;;;;5077075;28;20182;-68
2022/06/11 03:06:44;;;;;;;0.50;0.50;;;19.90;60.80;;;;;;5094875;28;20174;-68
2022/06/11 03:09:17;;;;;;;0.67;0.30;;;19.30;60.50;;;;;;5095246;28;20232;-67
2022/06/11 03:11:45;;;;;;;0.67;0.60;;;19.50;61.70;;;;;;5095229;28;20206;-68
2022/06/11 03:14:14;;;;;;;1.60;0.30;;;19.00;63.00;;;;;;5095030;28;20172;-68
2022/06/11 03:16:43;;;;;;;0.30;0.30;;;19.00;63.90;;;;;;5095025;28;20181;-67
2022/06/11 03:19:11;;;;;;;3.77;0.60;;;19.40;65.20;;;;;;5094917;28;20647;-68
2022/06/11 03:21:40;;;;;;;1.47;0.67;;;19.50;64.40;;;;;;5076910;28;20216;-68
2022/06/11 03:24:08;;;;;;;1.20;0.47;;;20.00;62.00;;;;;;5093786;28;20681;-68
2022/06/11 03:26:36;;;;;;;1.00;0.30;;;19.80;65.00;;;;;;5094485;28;20235;-68
2022/06/11 03:29:04;;;;;;;1.10;0.50;;;20.00;60.20;;;;;;5094611;28;20177;-68
2022/06/11 03:31:32;;;;;;;0.40;0.40;;;19.40;62.70;;;;;;5094804;28;20171;-67
2022/06/11 03:34:00;;;;;;;1.97;0.60;;;19.50;64.30;;;;;;5094340;28;20681;-69
2022/06/11 03:36:28;;;;;;;0.53;0.30;;;19.30;65.20;;;;;;5095153;28;20171;-69
2022/06/11 03:38:56;;;;;;;2.87;0.60;;;19.70;63.30;;;;;;5094401;28;20527;-69
2022/06/11 03:41:24;;;;;;;0.70;0.50;;;20.00;65.80;;;;;;5076027;28;20545;-69
2022/06/11 03:43:52;;;;;;;0.40;0.40;;;19.60;67.70;;;;;;5094421;28;20174;-69
2022/06/11 03:46:20;;;;;;;1.17;0.53;;;20.10;68.40;;;;;;5094166;28;20651;-69
2022/06/11 03:48:48;;;;;;;1.80;0.53;;;20.10;67.90;;;;;;5094380;28;20540;-68
2022/06/11 03:51:17;;;;;;;1.60;0.67;;;19.90;65.70;;;;;;5094325;28;20225;-68
2022/06/11 03:53:45;;;;;;;0.90;0.40;;;19.70;64.40;;;;;;5094170;28;20180;-68
2022/06/11 03:56:14;;;;;;;1.63;0.50;;;19.30;62.70;;;;;;5094661;28;20178;-67
2022/06/11 03:58:44;;;;;;;3.27;0.50;;;19.40;65.00;;;;;;5094118;28;20172;-67
2022/06/11 04:01:16;;;;;;;0.40;0.40;;;19.60;66.60;;;;;;5076132;28;20179;-68
2022/06/11 04:03:55;;;;;;;0.93;0.40;;;20.10;64.60;;;;;;5094172;28;20173;-68
2022/06/11 04:06:30;;;;;;;2.57;0.50;;;19.80;62.20;;;;;;5093926;28;20266;-66
2022/06/11 04:08:58;;;;;;;4.63;0.57;;;19.90;63.60;;;;;;5093943;28;20202;-67
2022/06/11 04:11:27;;;;;;;0.87;0.43;;;19.80;63.00;;;;;;5093956;28;20278;-68
2022/06/11 04:13:55;;;;;;;1.23;0.57;;;19.10;65.80;;;;;;5094149;28;20180;-68
2022/06/11 04:16:27;;;;;;;0.97;0.57;;;19.40;63.80;;;;;;5093715;28;20171;-68
2022/06/11 04:18:58;;;;;;;4.27;0.70;;;19.10;64.40;;;;;;5093741;28;20273;-68
2022/06/11 04:21:27;;;;;;;1.77;0.60;;;19.10;66.30;;;;;;5093674;28;20171;-67
2022/06/11 04:23:58;;;;;;;1.47;0.60;;;18.30;69.40;;;;;;5093656;28;20197;-68
2022/06/11 04:26:30;;;;;;;0.47;0.40;;;18.20;71.10;;;;;;5093305;28;20236;-70
2022/06/11 04:28:59;;;;;;;2.97;0.50;;;18.10;72.50;;;;;;5075221;28;20662;-68
2022/06/11 04:31:30;;;;;;;3.07;0.70;;;18.00;73.20;;;;;;5093450;28;20179;-69
2022/06/11 04:33:58;;;;;;;2.60;0.60;;;18.20;75.60;;;;;;5076242;28;20172;-70
2022/06/11 04:36:27;;;;;;;3.63;0.70;;;18.30;74.90;;;;;;5093481;28;20179;-69
2022/06/11 04:38:55;;;;;;;3.10;0.60;;;18.60;75.10;;;;;;5093420;28;20179;-70
2022/06/11 04:41:24;;;;;;;2.17;0.67;;;18.80;72.00;;;;;;5075332;28;20641;-70
2022/06/11 04:43:52;;;;;;;1.47;0.63;;;19.20;71.40;;;;;;5093453;28;20171;-70
2022/06/11 04:46:20;;;;;;;1.63;0.60;;;19.10;69.40;;;;;;5092438;28;20202;-68
2022/06/11 04:48:48;;;;;;;1.33;0.67;;;19.40;70.90;;;;;;5073021;28;20254;-69
2022/06/11 04:51:17;;;;;;;3.13;0.60;;;19.30;68.80;;;;;;5088730;28;20760;-68
2022/06/11 04:53:45;;;;;;;2.67;0.67;;;19.40;66.80;;;;;;5072998;28;20645;-70
2022/06/11 04:56:21;;;;;;;1.57;0.70;;;19.00;63.90;;;;;;5092927;28;20183;-71
2022/06/11 04:58:49;;;;;;;1.00;0.50;;;18.70;64.60;;;;;;5093047;28;20185;-70
2022/06/11 05:01:17;;;;;;;2.10;0.70;;;18.70;63.70;;;;;;5093068;28;20658;-68
2022/06/11 05:03:45;;;;;;;2.60;0.50;;;18.90;62.90;;;;;;5074847;28;20218;-70
2022/06/11 05:06:17;;;;;;;1.90;0.60;;;18.60;62.30;;;;;;5092466;28;20180;-70
2022/06/11 05:08:45;;;;;;;2.13;0.60;;;18.60;62.90;;;;;;5093061;28;20179;-68
2022/06/11 05:11:13;;;;;;;1.70;0.57;;;18.50;63.80;;;;;;5092888;28;20219;-68
2022/06/11 05:13:42;;;;;;;1.13;0.67;;;18.50;63.70;;;;;;5093027;28;20171;-68
2022/06/11 05:16:15;;;;;;;1.50;0.60;;;18.80;65.20;;;;;;5088555;28;20183;-68
2022/06/11 05:18:43;;;;;;;2.03;0.80;;;18.50;63.60;;;;;;5090051;28;20221;-67
2022/06/11 05:21:11;;;;;;;0.73;0.60;;;18.60;64.20;;;;;;5071095;28;20176;-69
2022/06/11 05:23:38;;;;;;;3.37;0.50;;;18.80;65.80;;;;;;5071592;28;20184;-67
2022/06/11 05:26:08;;;;;;;3.90;0.70;;;18.60;65.20;;;;;;5071157;28;20288;-70
2022/06/11 05:28:37;;;;;;;2.83;0.70;;;17.60;64.50;;;;;;5079026;28;20254;-68
2022/06/11 05:31:04;;;;;;;1.03;0.70;;;17.30;68.70;;;;;;5091531;28;20211;-66
2022/06/11 05:33:32;;;;;;;2.43;0.73;;;16.90;69.20;;;;;;5073397;28;20178;-69
2022/06/11 05:36:00;;;;;;;3.40;0.60;;;16.60;71.10;;;;;;5091564;28;20598;-66
2022/06/11 05:38:29;;;;;;;4.40;0.90;;;16.40;68.60;;;;;;5091192;28;20540;-68
2022/06/11 05:40:57;;;;;;;3.60;0.60;;;16.30;69.50;;;;;;5091336;28;20190;-69
2022/06/11 05:43:26;;;;;;;1.57;0.70;;;16.20;70.00;;;;;;5091339;28;20179;-68
2022/06/11 05:46:18;;;;;;;1.93;0.57;;;16.10;67.60;;;;;;5091939;28;20766;-69
2022/06/11 05:49:00;;;;;;;0.83;0.53;;;16.00;68.00;;;;;;5095375;28;20210;-67
2022/06/11 05:51:34;;;;;;;0.70;0.50;;;15.90;70.10;;;;;;5095595;28;20728;-68
2022/06/11 05:54:06;;;;;;;1.60;0.60;;;15.80;72.20;;;;;;5095591;28;20185;-68
2022/06/11 05:56:34;;;;;;;1.60;0.60;;;15.70;72.70;;;;;;5095089;28;20195;-69
2022/06/11 05:59:11;;;;;;;2.33;0.70;;;15.60;76.30;;;;;;5095253;28;20182;-68
2022/06/11 06:01:41;;;;;;;1.53;0.50;;;15.50;76.40;;;;;;5095232;28;20244;-69
2022/06/11 06:04:09;;;;;;;1.63;0.50;;;15.40;76.60;;;;;;5095298;28;20255;-68
2022/06/11 06:06:37;;;;;;;4.47;0.73;;;15.30;77.00;;;;;;5094734;28;20201;-69
2022/06/11 06:09:06;;;;;;;2.03;0.70;;;15.40;77.30;;;;;;5094893;28;20244;-69
2022/06/11 06:11:34;;;;;;;2.17;0.80;;;15.30;80.10;;;;;;5094922;28;20221;-69
2022/06/11 06:14:02;;;;;;;1.03;0.53;;;15.20;80.20;;;;;;5095133;28;20270;-68
2022/06/11 06:16:31;;;;;;;7.23;0.80;;;15.10;82.60;;;;;;5094741;28;20177;-66
2022/06/11 06:19:01;;;;;;;3.13;0.53;;;15.00;84.10;;;;;;5094724;28;20195;-67
2022/06/11 06:21:32;;;;;;;3.13;0.60;;;15.00;86.40;;;;;;5094937;28;20652;-69
2022/06/11 06:24:00;;;;;;;5.83;0.77;;;14.80;90.00;;;;;;5094974;28;20197;-66
2022/06/11 06:26:28;;;;;;;3.70;0.70;;;14.80;88.80;;;;;;5094376;28;20226;-69
2022/06/11 06:28:56;;;;;;;1.47;0.83;;;14.70;88.60;;;;;;5094512;28;20185;-67
2022/06/11 06:31:24;;;;;;;1.13;0.60;;;14.70;90.70;;;;;;5094591;28;20219;-68
2022/06/11 06:33:53;;;;;;;4.80;0.80;;;14.60;91.40;;;;;;5094183;28;20342;-68
2022/06/11 06:36:21;;;;;;;5.03;0.70;;;14.60;91.20;;;;;;5094495;28;20527;-66
2022/06/11 06:38:50;;;;;;;2.27;0.73;;;14.50;91.50;;;;;;5093980;28;20198;-65
2022/06/11 06:41:21;;;;;;;6.67;0.70;;;14.40;91.80;;;;;;5094327;28;20185;-67
2022/06/11 06:43:49;;;;;;;3.67;0.90;;;14.30;92.00;;;;;;5094566;28;20190;-66
2022/06/11 06:46:18;;;;;;;1.27;0.60;;;14.20;93.40;;;;;;5094045;28;20178;-67
2022/06/11 06:48:46;;;;;;;1.53;0.73;;;14.10;93.70;;;;;;5093631;28;20253;-66
2022/06/11 06:51:14;;;;;;;1.63;0.70;;;14.00;94.60;;;;;;5093993;28;20228;-67
2022/06/11 06:53:44;;;;;;;4.33;1.07;;;14.00;95.40;;;;;;5094215;28;20185;-64
2022/06/11 06:56:12;;;;;;;3.00;0.80;;;13.90;96.80;;;;;;5093967;28;20190;-68
2022/06/11 06:58:40;;;;;;;3.10;1.03;;;13.80;97.90;;;;;;5093896;28;20186;-67
2022/06/11 07:01:08;;;;;;;5.10;0.70;;;13.70;98.70;;;;;;5075548;28;20208;-68
2022/06/11 07:03:36;;;;;;;3.70;0.77;;;13.80;99.20;;;;;;5075719;28;20554;-68
2022/06/11 07:06:05;;;;;;;2.47;0.80;;;13.70;99.90;;;;;;5093176;28;20180;-69
2022/06/11 07:08:33;;;;;;;2.73;0.60;;;13.60;99.90;;;;;;5094267;28;20260;-67
2022/06/11 07:11:01;;;;;;;0.80;0.60;;;13.60;99.90;;;;;;5094413;28;20355;-67
2022/06/11 07:13:29;;;;;;;0.90;0.60;;;13.50;99.90;;;;;;5076668;28;20182;-68
2022/06/11 07:15:57;;;;;;;2.50;0.63;;;13.40;99.90;;;;;;5094862;28;20185;-66
2022/06/11 07:18:35;;;;;;;2.80;1.30;;;13.30;99.90;;;;;;5075833;28;20198;-67
2022/06/11 07:21:06;;;;;;;1.40;0.70;;;13.30;99.90;;;;;;5094799;28;20170;-66
2022/06/11 07:24:06;;;;;;;2.23;0.90;;;13.20;99.90;;;;;;5094733;28;20177;-65
2022/06/11 07:26:37;;;;;;;2.37;0.77;;;13.30;99.90;;;;;;5093944;28;20214;-65
2022/06/11 07:29:26;;;;;;;0.80;0.70;;;13.20;99.90;;;;;;5094476;28;20275;-66
2022/06/11 07:32:01;;;;;;;4.93;1.13;;;13.10;99.90;;;;;;5076072;28;20271;-65
2022/06/11 07:34:30;;;;;;;2.83;0.90;;;13.10;99.90;;;;;;5094528;28;20184;-65
2022/06/11 07:36:58;;;;;;;2.77;0.90;;;12.90;99.90;;;;;;5094432;28;20180;-68
2022/06/11 07:39:30;;;;;;;2.03;0.90;;;12.90;99.90;;;;;;5094577;28;20326;-66
2022/06/11 07:41:57;;;;;;;4.37;0.90;;;12.80;99.90;;;;;;5094398;28;20253;-69
2022/06/11 07:44:25;;;;;;;4.40;0.80;;;12.70;99.90;;;;;;5094001;28;20185;-66
2022/06/11 07:46:53;;;;;;;0.73;0.73;;;12.60;99.90;;;;;;5094254;28;20342;-66
2022/06/11 07:49:21;;;;;;;0.80;0.70;;;12.60;99.90;;;;;;5094176;28;20213;-66
2022/06/11 07:51:49;;;;;;;1.93;1.03;;;12.50;99.90;;;;;;5093993;28;20681;-63
2022/06/11 07:54:17;;;;;;;1.67;1.00;;;12.30;99.90;;;;;;5075292;28;20184;-68
2022/06/11 07:56:44;;;;;;;1.23;0.90;;;12.00;99.90;;;;;;5094118;28;20178;-67
2022/06/11 07:59:12;;;;;;;2.80;0.90;;;11.90;99.90;;;;;;5093687;28;20181;-65
2022/06/11 08:01:40;;;;;;;2.57;1.00;;;11.60;99.90;;;;;;5094080;28;20260;-65
2022/06/11 08:04:08;;;;;;;2.37;1.20;;;11.40;99.90;;;;;;5093538;28;20271;-68
2022/06/11 08:06:35;;;;;;;5.13;1.27;;;11.30;99.90;;;;;;5093797;28;20205;-66
2022/06/11 08:09:03;;;;;;;3.13;1.23;;;11.10;99.90;;;;;;5093344;28;20281;-67
2022/06/11 08:11:31;;;;;;;3.90;1.27;;;11.30;99.90;;;;;;5093989;28;20189;-68
2022/06/11 08:14:00;;;;;;;6.83;1.20;;;11.30;99.90;;;;;;5093722;28;20185;-66
2022/06/11 08:16:28;;;;;;;3.90;1.47;;;11.20;99.90;;;;;;5093950;28;20611;-67
2022/06/11 08:18:55;;;;;;;3.90;1.10;;;11.10;99.90;;;;;;5093782;28;20508;-69
2022/06/11 08:21:23;;;;;;;1.07;0.83;;;10.90;99.90;;;;;;5075125;28;20175;-67
2022/06/11 08:23:51;;;;;;;6.47;1.13;;;10.90;99.90;;;;;;5093356;28;20689;-67
2022/06/11 08:26:19;;;;;;;2.13;0.97;;;10.90;99.90;;;;;;5093003;28;20698;-66
2022/06/11 08:28:47;;;;;;;1.30;0.90;;;10.90;99.90;;;;;;5075150;28;20273;-65
2022/06/11 08:31:15;;;;;;;0.97;0.80;;;10.90;99.90;;;;;;5093384;28;20337;-65
2022/06/11 08:33:43;;;;;;;2.97;1.67;;;10.90;99.90;;;;;;5093165;28;20176;-66
2022/06/11 08:36:10;;;;;;;2.07;1.30;;;10.70;99.90;;;;;;5093416;28;20260;-68
2022/06/11 08:38:38;;;;;;;3.53;1.07;;;10.60;99.90;;;;;;5075192;28;20617;-65
2022/06/11 08:41:16;;;;;;;2.57;1.30;;;10.70;99.90;;;;;;5093099;28;20179;-65
2022/06/11 08:44:05;;;;;;;1.67;0.90;;;10.60;99.90;;;;;;5093110;28;20175;-67
2022/06/11 08:46:37;;;;;;;2.97;0.90;;;10.50;99.90;;;;;;5092742;28;20189;-68
2022/06/11 08:49:10;;;;;;;3.33;1.00;;;10.60;99.90;;;;;;5092428;28;20263;-67
2022/06/11 08:52:09;;;;;;;2.37;1.10;;;10.90;99.90;;;;;;5092394;28;20264;-66
2022/06/11 08:54:41;;;;;;;4.30;1.30;;;11.00;99.90;;;;;;5082441;28;20267;-66
2022/06/11 08:57:27;;;;;;;5.37;1.70;;;11.20;99.90;;;;;;5092987;28;20176;-66
2022/06/11 09:00:02;;;;;;;4.37;1.13;;;11.40;99.90;;;;;;5093146;28;20257;-66
2022/06/11 09:02:50;;;;;;;2.70;1.10;;;11.40;99.90;;;;;;5092694;28;20180;-65
2022/06/11 09:05:55;;;;;;;6.87;1.73;;;11.40;99.90;;;;;;5093041;28;20184;-67
2022/06/11 09:08:39;;;;;;;2.30;0.97;;;11.60;99.90;;;;;;5041713;28;20561;-65
2022/06/11 09:11:24;;;;;;;4.03;1.20;;;11.70;99.90;;;;;;5092356;28;20254;-68
2022/06/11 09:14:14;;;;;;;2.90;1.20;;;11.70;99.90;;;;;;5093017;28;20183;-68
2022/06/11 09:16:42;;;;;;;4.80;1.27;;;11.70;99.90;;;;;;5092645;28;20172;-67
2022/06/11 09:19:21;;;;;;;1.10;0.80;;;11.70;99.90;;;;;;5092706;28;20272;-66
2022/06/11 09:21:55;;;;;;;5.40;0.90;;;11.70;99.90;;;;;;5094757;28;20187;-68
2022/06/11 09:24:42;;;;;;;3.77;1.10;;;11.70;99.90;;;;;;5078901;28;20185;-68
2022/06/11 09:27:19;;;;;;;2.70;1.10;;;11.70;99.90;;;;;;5075284;28;20263;-65
2022/06/11 09:30:04;;;;;;;4.20;1.37;;;11.60;99.90;;;;;;5076930;28;20355;-67
2022/06/11 09:32:40;;;;;;;3.50;1.33;;;11.60;99.90;;;;;;5074974;28;20184;-66
2022/06/11 09:35:26;;;;;;;4.40;1.60;;;11.60;99.90;;;;;;5075153;28;20268;-68
2022/06/11 09:38:10;;;;;;;4.93;1.63;;;11.60;99.90;;;;;;5076664;28;20173;-67
2022/06/11 09:40:41;;;;;;;4.53;1.43;;;11.50;99.90;;;;;;5076686;28;20175;-69
2022/06/11 09:43:27;;;;;;;2.73;1.40;;;11.50;99.90;;;;;;5075031;28;20714;-66
2022/06/11 09:46:24;;;;;;;4.50;1.60;;;11.40;99.90;;;;;;5074945;28;20184;-67
2022/06/11 09:49:15;;;;;;;3.10;1.40;;;11.20;99.90;;;;;;5076544;28;20178;-66
2022/06/11 09:52:08;;;;;;;4.53;1.50;;;11.40;99.90;;;;;;5076109;28;20194;-68
2022/06/11 09:54:48;;;;;;;2.43;1.30;;;11.30;99.90;;;;;;5076037;28;20190;-69
2022/06/11 09:57:28;;;;;;;2.73;1.17;;;11.30;99.90;;;;;;5076568;28;20246;-67
2022/06/11 10:00:22;;;;;;;6.67;1.30;;;11.30;99.90;;;;;;5076221;28;20177;-65
2022/06/11 10:05:52;;;;;;;4.80;1.27;;;11.20;99.90;;;;;;5056099;28;20212;-64
2022/06/11 10:08:43;;;;;;;4.07;1.07;;;11.10;99.90;;;;;;5056169;28;20183;-68
2022/06/11 10:11:41;;;;;;;3.20;1.10;;;11.10;99.90;;;;;;5075678;28;20573;-67
2022/06/11 10:14:30;;;;;;;4.40;1.23;;;11.10;99.90;;;;;;5052739;28;20218;-67
2022/06/11 10:17:25;;;;;;;2.70;1.13;;;11.10;99.90;;;;;;5076036;28;20181;-65
2022/06/11 10:20:02;;;;;;;7.53;2.07;;;11.10;99.90;;;;;;5075978;28;20174;-68
2022/06/11 10:22:42;;;;;;;5.30;1.27;;;10.90;99.90;;;;;;5075584;28;20184;-65
2022/06/11 10:25:54;;;;;;;3.07;1.37;;;10.80;99.90;;;;;;5077513;28;20183;-67
2022/06/11 10:28:27;;;;;;;2.00;1.40;;;10.80;99.90;;;;;;5092142;28;20255;-66
2022/06/11 10:31:19;;;;;;;5.47;1.27;;;10.80;99.90;;;;;;5095465;28;20279;-66
2022/06/11 10:33:52;;;;;;;4.07;1.47;;;10.70;99.90;;;;;;5095624;28;20181;-66
2022/06/11 10:36:53;;;;;;;2.93;1.00;;;10.70;99.90;;;;;;5095553;28;20205;-67
2022/06/11 10:39:29;;;;;;;2.83;1.00;;;10.60;99.90;;;;;;5064753;28;20191;-65
2022/06/11 10:41:57;;;;;;;6.37;1.30;;;10.60;99.90;;;;;;5095361;28;20285;-66
2022/06/11 10:44:53;;;;;;;4.13;1.20;;;10.60;99.90;;;;;;5095503;28;20181;-67
2022/06/11 10:47:26;;;;;;;2.00;1.10;;;10.40;99.90;;;;;;5095653;28;20686;-66
2022/06/11 10:50:01;;;;;;;4.03;1.30;;;10.50;99.90;;;;;;5095343;28;20235;-66
2022/06/11 10:52:44;;;;;;;5.40;1.13;;;10.40;99.90;;;;;;5095290;28;20559;-65
2022/06/11 10:55:27;;;;;;;2.73;1.20;;;10.30;99.90;;;;;;5095467;28;20221;-66
2022/06/11 10:57:56;;;;;;;3.40;1.30;;;10.30;99.90;;;;;;5095555;28;20181;-66
2022/06/11 11:00:37;;;;;;;3.87;1.60;;;10.20;99.90;;;;;;5095468;28;20176;-65
2022/06/11 11:03:21;;;;;;;5.80;1.60;;;10.30;99.90;;;;;;5077118;28;20219;-65
2022/06/11 11:05:56;;;;;;;5.50;1.53;;;10.30;99.90;;;;;;5094756;28;20551;-68
2022/06/11 11:08:23;;;;;;;3.23;1.00;;;10.30;99.90;;;;;;5095026;28;20187;-66
2022/06/11 11:10:54;;;;;;;2.67;1.10;;;10.40;99.90;;;;;;5076905;28;20616;-66
2022/06/11 11:13:39;;;;;;;4.93;1.30;;;10.40;99.90;;;;;;5094652;28;20273;-66
2022/06/11 11:16:13;;;;;;;2.33;1.07;;;10.40;99.90;;;;;;5076045;28;20270;-67
2022/06/11 11:18:56;;;;;;;5.33;1.27;;;10.30;99.90;;;;;;5095221;28;20175;-68
2022/06/11 11:21:31;;;;;;;3.03;1.30;;;10.20;99.90;;;;;;5076700;28;20557;-67
2022/06/11 11:24:23;;;;;;;5.27;1.70;;;10.20;99.90;;;;;;5095307;28;20228;-67
2022/06/11 11:27:15;;;;;;;3.67;1.63;;;10.20;99.90;;;;;;5094485;28;20223;-68
2022/06/11 11:29:59;;;;;;;3.17;1.20;;;10.10;99.90;;;;;;5094628;28;20649;-65
2022/06/11 11:32:35;;;;;;;5.97;1.30;;;10.10;99.90;;;;;;5094462;28;20270;-64
2022/06/11 11:35:28;;;;;;;3.00;1.60;;;10.00;99.90;;;;;;5094743;28;20174;-65
2022/06/11 11:38:13;;;;;;;2.60;1.17;;;9.80;99.90;;;;;;5076613;28;20324;-67
2022/06/11 11:40:57;;;;;;;5.67;2.10;;;9.50;99.90;;;;;;5094280;28;20191;-68
2022/06/11 11:43:34;;;;;;;3.90;1.80;;;9.30;99.90;;;;;;5093490;28;20198;-69
2022/06/11 11:46:13;;;;;;;5.57;2.70;;;9.20;99.90;;;;;;5094365;28;20226;-68
2022/06/11 11:48:52;;;;;;;5.93;2.50;;;9.00;99.90;;;;;;5094627;28;20313;-68
2022/06/11 11:51:31;;;;;;;5.83;2.50;;;8.90;99.90;;;;;;5093579;28;20217;-69
2022/06/11 11:54:04;;;;;;;7.20;1.90;;;8.90;99.90;;;;;;5075968;28;20191;-69
2022/06/11 11:56:34;;;;;;;7.20;1.50;;;8.80;99.90;;;;;;5094701;28;20262;-66
2022/06/11 11:59:15;;;;;;;5.30;1.50;;;8.60;99.90;;;;;;5094539;28;20178;-68
2022/06/11 12:01:45;;;;;;;3.27;1.60;;;8.50;99.90;;;;;;5093970;28;20190;-66
2022/06/11 12:04:27;;;;;;;4.97;1.60;;;8.50;99.90;;;;;;5094073;28;20201;-69
2022/06/11 12:07:04;;;;;;;5.37;1.67;;;8.50;99.90;;;;;;5093988;28;20649;-67
2022/06/11 12:09:37;;;;;;;6.20;1.57;;;8.40;99.90;;;;;;5094056;28;20172;-69
2022/06/11 12:12:20;;;;;;;5.50;1.90;;;8.20;99.90;;;;;;5093485;28;20561;-65
2022/06/11 12:14:51;;;;;;;7.13;2.33;;;8.10;99.90;;;;;;5094280;28;20210;-67
2022/06/11 12:17:27;;;;;;;5.20;1.93;;;8.10;99.90;;;;;;5093838;28;20210;-66
2022/06/11 12:20:04;;;;;;;7.60;1.93;;;8.00;99.90;;;;;;5075178;28;20181;-68
2022/06/11 12:22:58;;;;;;;6.33;2.23;;;8.00;99.90;;;;;;5093982;28;20171;-68
2022/06/11 12:25:40;;;;;;;7.13;2.30;;;7.80;99.90;;;;;;5083824;28;20218;-65
2022/06/11 12:28:12;;;;;;;5.07;2.77;;;7.70;99.90;;;;;;5093535;28;20195;-68
2022/06/11 12:30:40;;;;;;;4.00;2.13;;;7.60;99.90;;;;;;5093341;28;20585;-68
2022/06/11 12:33:19;;;;;;;6.37;2.23;;;7.60;99.90;;;;;;5093455;28;20178;-68
2022/06/11 12:36:11;;;;;;;5.80;1.90;;;7.50;99.90;;;;;;5092973;28;20210;-68
2022/06/11 12:39:13;;;;;;;2.87;2.13;;;7.50;99.90;;;;;;5093299;28;20649;-68
2022/06/11 12:41:57;;;;;;;8.70;2.40;;;7.50;99.90;;;;;;5093249;28;20240;-67
2022/06/11 12:44:47;;;;;;;7.40;2.07;;;7.50;99.90;;;;;;5093187;28;20672;-64
2022/06/11 12:47:30;;;;;;;4.20;2.20;;;7.50;99.90;;;;;;5079326;28;20640;-67
2022/06/11 12:50:21;;;;;;;5.27;2.27;;;7.50;99.90;;;;;;5092848;28;20251;-67
2022/06/11 12:53:05;;;;;;;4.47;1.80;;;7.50;99.90;;;;;;5093533;28;20187;-67
2022/06/11 12:55:54;;;;;;;5.73;1.83;;;7.60;99.90;;;;;;5093145;28;20176;-67
2022/06/11 12:58:53;;;;;;;4.43;1.83;;;7.50;99.90;;;;;;5093113;28;20178;-68
2022/06/11 13:01:27;;;;;;;5.73;1.83;;;7.90;99.90;;;;;;5092843;28;20281;-68
2022/06/11 13:04:30;;;;;;;3.77;2.00;;;8.00;99.90;;;;;;5093092;28;20180;-68
2022/06/11 13:07:31;;;;;;;4.53;2.10;;;7.90;99.90;;;;;;5093198;28;20171;-68
2022/06/11 13:10:26;;;;;;;5.20;2.20;;;8.00;99.90;;;;;;5092925;28;20243;-67
2022/06/11 13:13:20;;;;;;;4.90;2.10;;;8.00;99.90;;;;;;5080219;28;20184;-68
2022/06/11 13:16:15;;;;;;;4.87;1.90;;;7.90;99.90;;;;;;5092839;28;20175;-68
2022/06/11 13:19:18;;;;;;;4.97;2.03;;;7.80;99.90;;;;;;5074395;28;20305;-68
2022/06/11 13:22:19;;;;;;;6.23;2.33;;;7.80;99.90;;;;;;5008720;28;20193;-68
2022/06/11 13:25:23;;;;;;;4.93;2.27;;;7.80;99.90;;;;;;5049649;28;20285;-68
2022/06/11 13:28:00;;;;;;;7.10;2.57;;;7.80;99.90;;;;;;5093061;28;20266;-68
2022/06/11 13:31:14;;;;;;;5.43;2.00;;;8.00;99.90;;;;;;5076517;28;20218;-67
2022/06/11 13:34:04;;;;;;;6.40;1.63;;;8.00;99.90;;;;;;4991500;28;20176;-67
2022/06/11 13:37:08;;;;;;;5.10;1.90;;;8.40;99.90;;;;;;4991489;28;20260;-68